createdAt,value
2017-08-09T00:00:41.402Z,79.30
2017-08-09T00:03:09.691Z,80.60
2017-08-09T00:05:37.254Z,80.60
2017-08-09T00:08:04.983Z,80.00
2017-08-09T00:10:32.487Z,80.00
2017-08-09T00:13:00.039Z,80.00
2017-08-09T00:15:27.536Z,80.10
2017-08-09T00:17:55.054Z,79.90
2017-08-09T00:20:23.314Z,79.90
2017-08-09T00:22:51.601Z,80.00
2017-08-09T00:25:19.110Z,80.10
2017-08-09T00:27:46.944Z,80.30
2017-08-09T00:30:14.808Z,80.60
2017-08-09T00:32:42.351Z,80.60
2017-08-09T00:35:09.847Z,80.50
2017-08-09T00:37:37.574Z,80.60
2017-08-09T00:40:05.136Z,80.90
2017-08-09T00:42:32.695Z,80.70
2017-08-09T00:45:00.207Z,80.60
2017-08-09T00:47:27.711Z,80.70
2017-08-09T00:49:55.230Z,80.90
2017-08-09T00:52:22.735Z,80.70
2017-08-09T00:54:50.254Z,81.10
2017-08-09T00:57:18.559Z,82.00
2017-08-09T00:59:46.115Z,81.10
2017-08-09T01:02:13.618Z,81.10
2017-08-09T01:04:41.141Z,80.90
2017-08-09T01:07:08.639Z,80.80
2017-08-09T01:09:36.159Z,81.00
2017-08-09T01:12:04.268Z,81.10
2017-08-09T01:14:31.809Z,81.20
2017-08-09T01:16:59.311Z,81.10
2017-08-09T01:19:27.584Z,81.70
2017-08-09T01:21:55.881Z,81.80
2017-08-09T01:24:23.451Z,81.80
2017-08-09T01:26:50.971Z,82.20
2017-08-09T01:29:18.466Z,82.40
2017-08-09T01:31:46.023Z,82.50
2017-08-09T01:34:13.578Z,82.00
2017-08-09T01:36:41.463Z,82.10
2017-08-09T01:39:08.960Z,81.40
2017-08-09T01:41:36.477Z,81.20
2017-08-09T01:44:04.414Z,81.00
2017-08-09T01:46:32.690Z,81.10
2017-08-09T01:49:00.958Z,81.00
2017-08-09T01:51:29.258Z,80.90
2017-08-09T01:53:56.758Z,80.90
2017-08-09T01:56:24.279Z,80.70
2017-08-09T01:58:51.835Z,80.80
2017-08-09T02:01:19.331Z,80.30
2017-08-09T02:03:47.162Z,80.70
2017-08-09T02:06:14.671Z,80.90
2017-08-09T02:08:42.272Z,81.00
2017-08-09T02:11:09.771Z,81.00
2017-08-09T02:13:37.386Z,80.70
2017-08-09T02:16:05.702Z,80.70
2017-08-09T02:18:33.218Z,80.80
2017-08-09T02:21:01.335Z,80.70
2017-08-09T02:23:28.848Z,80.70
2017-08-09T02:25:56.359Z,80.40
2017-08-09T02:28:23.883Z,80.50
2017-08-09T02:30:52.170Z,80.90
2017-08-09T02:33:19.671Z,81.60
2017-08-09T02:35:47.186Z,81.80
2017-08-09T02:38:14.682Z,82.20
2017-08-09T02:40:42.284Z,82.40
2017-08-09T02:43:09.795Z,82.40
2017-08-09T02:45:37.312Z,82.40
2017-08-09T02:48:04.811Z,82.80
2017-08-09T02:50:32.326Z,82.60
2017-08-09T02:52:59.831Z,82.70
2017-08-09T02:55:27.349Z,83.20
2017-08-09T02:57:54.850Z,83.10
2017-08-09T03:00:23.065Z,83.30
2017-08-09T03:02:51.286Z,83.40
2017-08-09T03:05:18.890Z,83.10
2017-08-09T03:07:46.390Z,83.40
2017-08-09T03:10:13.903Z,83.70
2017-08-09T03:12:41.470Z,83.20
2017-08-09T03:15:09.238Z,83.30
2017-08-09T03:17:37.519Z,83.10
2017-08-09T03:20:05.023Z,83.30
2017-08-09T03:22:32.627Z,83.70
2017-08-09T03:25:00.181Z,84.90
2017-08-09T03:27:27.694Z,84.90
2017-08-09T03:29:55.606Z,85.20
2017-08-09T03:32:23.170Z,85.50
2017-08-09T03:34:51.474Z,85.30
2017-08-09T03:37:19.003Z,85.40
2017-08-09T03:39:47.108Z,85.90
2017-08-09T03:42:14.635Z,86.40
2017-08-09T03:44:42.635Z,86.40
2017-08-09T03:47:10.188Z,86.50
2017-08-09T03:49:38.231Z,86.40
2017-08-09T03:52:05.740Z,86.30
2017-08-09T03:54:33.347Z,85.90
2017-08-09T03:57:00.915Z,85.60
2017-08-09T03:59:28.435Z,85.80
2017-08-09T04:01:56.713Z,87.00
2017-08-09T04:04:24.234Z,86.20
2017-08-09T04:06:51.738Z,86.50
2017-08-09T04:09:20.014Z,86.20
2017-08-09T04:11:48.275Z,85.80
2017-08-09T04:14:15.803Z,85.70
2017-08-09T04:16:43.311Z,85.60
2017-08-09T04:19:11.591Z,86.10
2017-08-09T04:21:40.667Z,86.10
2017-08-09T04:24:09.052Z,87.40
2017-08-09T04:26:37.350Z,86.40
2017-08-09T04:29:04.914Z,86.40
2017-08-09T04:31:32.435Z,86.60
2017-08-09T04:33:59.934Z,87.80
2017-08-09T04:36:27.448Z,86.70
2017-08-09T04:38:54.952Z,86.60
2017-08-09T04:41:22.471Z,86.70
2017-08-09T04:43:50.781Z,86.00
2017-08-09T04:46:18.303Z,86.10
2017-08-09T04:48:45.896Z,85.90
2017-08-09T04:51:13.414Z,85.60
2017-08-09T04:53:40.919Z,85.10
2017-08-09T04:56:08.455Z,85.20
2017-08-09T04:58:36.742Z,86.20
2017-08-09T05:01:04.243Z,86.20
2017-08-09T05:03:31.859Z,86.80
2017-08-09T05:05:59.358Z,86.00
2017-08-09T05:08:26.875Z,85.90
2017-08-09T05:10:54.376Z,86.30
2017-08-09T05:13:22.422Z,86.30
2017-08-09T05:15:49.926Z,87.00
2017-08-09T05:18:17.436Z,87.80
2017-08-09T05:20:44.983Z,88.30
2017-08-09T05:23:12.539Z,88.70
2017-08-09T05:25:40.034Z,88.60
2017-08-09T05:28:07.903Z,88.60
2017-08-09T05:30:35.420Z,88.50
2017-08-09T05:33:02.927Z,88.00
2017-08-09T05:35:30.452Z,87.00
2017-08-09T05:37:57.950Z,86.70
2017-08-09T05:40:25.467Z,87.20
2017-08-09T05:42:53.006Z,87.40
2017-08-09T05:45:20.571Z,87.40
2017-08-09T05:47:48.131Z,87.80
2017-08-09T05:50:15.815Z,87.40
2017-08-09T05:52:43.350Z,87.00
2017-08-09T05:55:10.866Z,87.10
2017-08-09T05:57:38.366Z,87.10
2017-08-09T06:00:05.890Z,86.80
2017-08-09T06:02:33.594Z,87.50
2017-08-09T06:05:01.091Z,87.80
2017-08-09T06:07:28.702Z,86.90
2017-08-09T06:09:56.258Z,86.90
2017-08-09T06:12:23.828Z,87.10
2017-08-09T06:14:51.326Z,87.20
2017-08-09T06:17:18.934Z,87.10
2017-08-09T06:19:46.433Z,87.50
2017-08-09T06:22:13.961Z,88.10
2017-08-09T06:24:41.469Z,88.30
2017-08-09T06:27:08.990Z,85.60
2017-08-09T06:29:37.175Z,86.00
2017-08-09T06:32:04.722Z,86.60
2017-08-09T06:34:32.219Z,87.10
2017-08-09T06:37:00.032Z,87.20
2017-08-09T06:39:27.586Z,86.20
2017-08-09T06:41:55.086Z,85.70
2017-08-09T06:44:22.603Z,86.10
2017-08-09T06:46:50.283Z,86.50
2017-08-09T06:49:17.803Z,85.90
2017-08-09T06:51:46.066Z,85.00
2017-08-09T06:54:13.577Z,85.00
2017-08-09T06:56:41.075Z,85.10
2017-08-09T06:59:08.598Z,84.80
2017-08-09T07:01:36.131Z,84.80
2017-08-09T07:04:03.691Z,84.30
2017-08-09T07:06:31.614Z,82.90
2017-08-09T07:08:59.723Z,82.70
2017-08-09T07:11:27.242Z,82.20
2017-08-09T07:13:54.843Z,82.40
2017-08-09T07:16:22.363Z,82.20
2017-08-09T07:18:49.865Z,80.10
2017-08-09T07:21:17.383Z,80.40
2017-08-09T07:23:44.984Z,79.80
2017-08-09T07:26:12.507Z,78.40
2017-08-09T07:28:41.592Z,78.70
2017-08-09T07:31:09.187Z,77.90
2017-08-09T07:33:36.907Z,74.50
2017-08-09T07:36:04.418Z,75.10
2017-08-09T07:38:31.974Z,73.30
2017-08-09T07:40:59.497Z,71.90
2017-08-09T07:43:27.086Z,71.90
2017-08-09T07:45:54.588Z,72.90
2017-08-09T07:48:22.215Z,72.50
2017-08-09T07:50:49.719Z,71.50
2017-08-09T07:53:17.318Z,71.00
2017-08-09T07:55:44.835Z,70.50
2017-08-09T07:58:12.351Z,71.60
2017-08-09T08:00:39.846Z,70.60
2017-08-09T08:03:07.459Z,69.90
2017-08-09T08:05:35.028Z,69.50
2017-08-09T08:08:03.153Z,71.40
2017-08-09T08:10:30.660Z,69.50
2017-08-09T08:12:58.195Z,68.70
2017-08-09T08:15:25.776Z,68.70
2017-08-09T08:17:53.279Z,68.70
2017-08-09T08:20:20.883Z,68.30
2017-08-09T08:22:48.386Z,69.10
2017-08-09T08:25:15.907Z,69.20
2017-08-09T08:27:43.425Z,67.30
2017-08-09T08:30:10.943Z,66.90
2017-08-09T08:32:38.476Z,68.00
2017-08-09T08:35:06.003Z,68.00
2017-08-09T08:37:34.275Z,66.70
2017-08-09T08:40:01.791Z,66.70
2017-08-09T08:42:29.300Z,66.50
2017-08-09T08:44:57.586Z,64.60
2017-08-09T08:47:25.879Z,64.60
2017-08-09T08:49:53.403Z,64.40
2017-08-09T08:52:20.898Z,64.90
2017-08-09T08:54:48.403Z,63.90
2017-08-09T08:57:15.920Z,63.00
2017-08-09T08:59:44.079Z,64.60
2017-08-09T09:02:11.596Z,64.30
2017-08-09T09:04:39.094Z,63.80
2017-08-09T09:07:06.610Z,64.40
2017-08-09T09:09:34.115Z,62.30
2017-08-09T09:12:01.671Z,60.70
2017-08-09T09:14:29.192Z,64.40
2017-08-09T09:16:56.711Z,63.30
2017-08-09T09:19:24.206Z,64.40
2017-08-09T09:21:51.728Z,60.40
2017-08-09T09:24:19.351Z,61.60
2017-08-09T09:26:46.855Z,61.70
2017-08-09T09:29:14.479Z,60.70
2017-08-09T09:31:42.039Z,62.70
2017-08-09T09:34:09.562Z,62.90
2017-08-09T09:36:37.154Z,61.50
2017-08-09T09:39:04.729Z,59.70
2017-08-09T09:41:33.142Z,58.10
2017-08-09T09:44:00.663Z,57.90
2017-08-09T09:46:28.167Z,58.40
2017-08-09T09:48:55.694Z,59.20
2017-08-09T09:51:23.207Z,58.30
2017-08-09T09:53:51.510Z,59.20
2017-08-09T09:56:19.882Z,59.20
2017-08-09T09:58:47.391Z,57.50
2017-08-09T10:01:15.003Z,59.10
2017-08-09T10:03:42.509Z,60.40
2017-08-09T10:06:10.023Z,59.60
2017-08-09T10:08:37.526Z,61.10
2017-08-09T10:11:05.053Z,57.10
2017-08-09T10:13:32.559Z,57.40
2017-08-09T10:16:00.847Z,57.90
2017-08-09T10:18:29.330Z,57.60
2017-08-09T10:20:57.614Z,57.20
2017-08-09T10:23:25.131Z,57.20
2017-08-09T10:25:52.673Z,56.00
2017-08-09T10:28:20.203Z,55.40
2017-08-09T10:30:47.706Z,56.30
2017-08-09T10:33:15.223Z,55.80
2017-08-09T10:35:42.951Z,56.90
2017-08-09T10:38:11.251Z,55.50
2017-08-09T10:40:38.761Z,55.50
2017-08-09T10:43:06.366Z,53.50
2017-08-09T10:45:33.869Z,55.70
2017-08-09T10:48:01.388Z,55.10
2017-08-09T10:50:29.856Z,54.70
2017-08-09T10:52:57.379Z,56.00
2017-08-09T10:55:24.884Z,54.10
2017-08-09T10:57:52.427Z,55.70
2017-08-09T11:00:20.302Z,53.60
2017-08-09T11:02:47.799Z,54.60
2017-08-09T11:05:15.319Z,55.80
2017-08-09T11:07:42.827Z,53.50
2017-08-09T11:10:10.348Z,53.80
2017-08-09T11:12:38.619Z,54.00
2017-08-09T11:15:06.175Z,52.60
2017-08-09T11:17:33.735Z,53.10
2017-08-09T11:20:01.294Z,53.60
2017-08-09T11:22:28.796Z,52.60
2017-08-09T11:24:56.933Z,53.40
2017-08-09T11:27:24.431Z,51.10
2017-08-09T11:29:52.039Z,51.90
2017-08-09T11:32:19.603Z,53.90
2017-08-09T11:34:47.159Z,54.50
2017-08-09T11:37:14.686Z,53.70
2017-08-09T11:39:42.964Z,53.80
2017-08-09T11:42:11.255Z,51.10
2017-08-09T11:44:39.518Z,50.70
2017-08-09T11:47:07.802Z,49.70
2017-08-09T11:49:36.072Z,49.30
2017-08-09T11:52:04.363Z,49.70
2017-08-09T11:54:31.938Z,49.70
2017-08-09T11:56:59.463Z,50.70
2017-08-09T11:59:27.766Z,49.20
2017-08-09T12:01:55.411Z,49.80
2017-08-09T12:04:23.681Z,52.20
2017-08-09T12:06:52.222Z,50.80
2017-08-09T12:09:19.844Z,50.80
2017-08-09T12:11:47.355Z,51.30
2017-08-09T12:14:14.874Z,50.60
2017-08-09T12:16:42.375Z,51.10
2017-08-09T12:19:09.979Z,50.20
2017-08-09T12:21:37.487Z,49.40
2017-08-09T12:24:05.009Z,49.50
2017-08-09T12:26:32.927Z,47.90
2017-08-09T12:29:01.215Z,48.10
2017-08-09T12:31:29.495Z,47.30
2017-08-09T12:33:57.779Z,46.30
2017-08-09T12:36:25.351Z,46.30
2017-08-09T12:38:52.851Z,47.00
2017-08-09T12:41:20.680Z,49.70
2017-08-09T12:43:48.235Z,51.40
2017-08-09T12:46:15.795Z,50.50
2017-08-09T12:48:43.351Z,50.20
2017-08-09T12:51:11.523Z,51.70
2017-08-09T12:53:39.083Z,50.20
2017-08-09T12:56:06.600Z,49.20
2017-08-09T12:58:34.102Z,48.50
2017-08-09T13:01:01.654Z,50.90
2017-08-09T13:03:29.164Z,50.40
2017-08-09T13:05:56.667Z,50.90
2017-08-09T13:08:24.738Z,52.40
2017-08-09T13:10:52.239Z,51.40
2017-08-09T13:13:19.755Z,52.10
2017-08-09T13:15:47.272Z,50.60
2017-08-09T13:18:14.792Z,50.80
2017-08-09T13:20:42.330Z,51.10
2017-08-09T13:23:09.897Z,51.80
2017-08-09T13:25:37.403Z,52.50
2017-08-09T13:28:04.919Z,52.60
2017-08-09T13:30:32.427Z,51.40
2017-08-09T13:32:59.947Z,51.50
2017-08-09T13:35:27.447Z,52.10
2017-08-09T13:37:55.012Z,51.20
2017-08-09T13:40:23.743Z,51.60
2017-08-09T13:42:51.282Z,51.60
2017-08-09T13:45:18.847Z,49.50
2017-08-09T13:47:46.357Z,50.30
2017-08-09T13:50:13.958Z,49.50
2017-08-09T13:52:41.463Z,50.40
2017-08-09T13:55:08.982Z,49.40
2017-08-09T13:57:36.686Z,48.60
2017-08-09T14:00:04.208Z,51.90
2017-08-09T14:02:31.711Z,51.00
2017-08-09T14:04:59.235Z,52.20
2017-08-09T14:07:26.735Z,51.00
2017-08-09T14:09:54.278Z,51.90
2017-08-09T14:12:21.790Z,51.40
2017-08-09T14:14:49.296Z,51.70
2017-08-09T14:17:16.819Z,51.10
2017-08-09T14:19:44.324Z,50.50
2017-08-09T14:22:11.848Z,50.70
2017-08-09T14:24:39.384Z,50.20
2017-08-09T14:27:06.904Z,50.30
2017-08-09T14:29:35.166Z,51.90
2017-08-09T14:32:02.682Z,51.10
2017-08-09T14:34:30.186Z,51.50
2017-08-09T14:36:57.698Z,52.00
2017-08-09T14:39:25.407Z,52.60
2017-08-09T14:41:52.936Z,52.40
2017-08-09T14:44:20.438Z,52.90
2017-08-09T14:46:48.711Z,52.20
2017-08-09T14:49:17.004Z,52.40
2017-08-09T14:51:44.507Z,52.30
2017-08-09T14:54:12.030Z,53.10
2017-08-09T14:56:39.856Z,53.10
2017-08-09T14:59:07.371Z,53.80
2017-08-09T15:01:34.866Z,53.50
2017-08-09T15:04:02.387Z,54.10
2017-08-09T15:06:29.898Z,53.80
2017-08-09T15:08:58.202Z,55.30
2017-08-09T15:11:25.704Z,55.20
2017-08-09T15:13:53.336Z,55.10
2017-08-09T15:16:21.525Z,54.10
2017-08-09T15:18:49.055Z,53.90
2017-08-09T15:21:16.624Z,54.20
2017-08-09T15:23:44.150Z,54.30
2017-08-09T15:26:12.447Z,54.20
2017-08-09T15:28:40.011Z,54.20
2017-08-09T15:31:07.572Z,54.40
2017-08-09T15:33:35.075Z,54.90
2017-08-09T15:36:02.600Z,54.90
2017-08-09T15:38:30.143Z,55.20
2017-08-09T15:40:57.698Z,55.10
2017-08-09T15:43:25.271Z,55.60
2017-08-09T15:45:53.247Z,56.40
2017-08-09T15:48:20.756Z,56.00
2017-08-09T15:50:49.043Z,56.50
2017-08-09T15:53:17.314Z,55.60
2017-08-09T15:55:45.599Z,56.40
2017-08-09T15:58:13.866Z,56.10
2017-08-09T16:00:42.144Z,56.20
2017-08-09T16:03:10.444Z,56.10
2017-08-09T16:05:38.003Z,56.20
2017-08-09T16:08:05.514Z,55.80
2017-08-09T16:10:33.019Z,55.80
2017-08-09T16:13:00.538Z,56.20
2017-08-09T16:15:28.043Z,55.80
2017-08-09T16:17:55.559Z,56.00
2017-08-09T16:20:23.834Z,56.60
2017-08-09T16:22:51.356Z,56.10
2017-08-09T16:25:18.864Z,56.40
2017-08-09T16:27:47.259Z,57.60
2017-08-09T16:30:14.755Z,57.60
2017-08-09T16:32:42.260Z,56.70
2017-08-09T16:35:10.543Z,56.30
2017-08-09T16:37:38.047Z,56.20
2017-08-09T16:40:05.574Z,56.30
2017-08-09T16:42:33.132Z,56.00
2017-08-09T16:45:00.679Z,55.70
2017-08-09T16:47:28.191Z,55.70
2017-08-09T16:49:55.706Z,55.60
2017-08-09T16:52:23.666Z,55.60
2017-08-09T16:54:51.194Z,55.80
2017-08-09T16:57:18.707Z,56.20
2017-08-09T16:59:46.211Z,56.00
2017-08-09T17:02:14.499Z,56.60
2017-08-09T17:04:42.795Z,56.30
2017-08-09T17:07:10.354Z,56.20
2017-08-09T17:09:37.915Z,56.60
2017-08-09T17:12:05.471Z,56.10
2017-08-09T17:14:32.976Z,56.50
2017-08-09T17:17:00.495Z,56.40
2017-08-09T17:19:28.519Z,56.90
2017-08-09T17:21:56.039Z,56.00
2017-08-09T17:24:23.534Z,56.30
2017-08-09T17:26:51.059Z,56.10
2017-08-09T17:29:18.592Z,55.90
2017-08-09T17:31:46.123Z,56.10
2017-08-09T17:34:14.395Z,56.10
2017-08-09T17:36:42.668Z,56.10
2017-08-09T17:39:10.970Z,55.40
2017-08-09T17:41:38.479Z,55.40
2017-08-09T17:44:06.001Z,55.70
2017-08-09T17:46:33.504Z,55.50
2017-08-09T17:49:01.024Z,55.40
2017-08-09T17:51:28.522Z,56.00
2017-08-09T17:53:56.052Z,55.30
2017-08-09T17:56:23.569Z,55.50
2017-08-09T17:58:51.856Z,55.50
2017-08-09T18:01:19.364Z,55.50
2017-08-09T18:03:46.884Z,56.50
2017-08-09T18:06:15.207Z,56.20
2017-08-09T18:08:42.751Z,55.70
2017-08-09T18:11:10.914Z,55.90
2017-08-09T18:13:38.438Z,56.10
2017-08-09T18:16:06.004Z,56.80
2017-08-09T18:18:33.506Z,56.60
2017-08-09T18:21:01.580Z,56.50
2017-08-09T18:23:29.082Z,56.70
2017-08-09T18:25:56.606Z,56.40
2017-08-09T18:28:24.114Z,57.00
2017-08-09T18:30:51.627Z,57.00
2017-08-09T18:33:19.894Z,56.10
2017-08-09T18:35:47.495Z,56.40
2017-08-09T18:38:15.004Z,56.80
2017-08-09T18:40:42.539Z,56.40
2017-08-09T18:43:10.511Z,56.50
2017-08-09T18:45:38.244Z,56.80
2017-08-09T18:48:05.743Z,57.00
2017-08-09T18:50:33.471Z,56.70
2017-08-09T18:53:01.027Z,56.70
2017-08-09T18:55:28.537Z,56.80
2017-08-09T18:57:56.056Z,56.60
2017-08-09T19:00:23.554Z,56.30
2017-08-09T19:02:51.072Z,56.60
2017-08-09T19:05:18.624Z,57.00
2017-08-09T19:07:46.232Z,56.90
2017-08-09T19:10:13.732Z,56.80
2017-08-09T19:12:41.290Z,57.20
2017-08-09T19:15:08.795Z,57.50
2017-08-09T19:17:36.318Z,56.80
2017-08-09T19:20:03.895Z,56.90
2017-08-09T19:22:31.414Z,57.10
2017-08-09T19:24:58.933Z,59.10
2017-08-09T19:27:27.240Z,59.30
2017-08-09T19:29:54.773Z,59.30
2017-08-09T19:32:22.700Z,59.40
2017-08-09T19:34:50.227Z,59.60
2017-08-09T19:37:18.504Z,59.90
2017-08-09T19:39:46.787Z,60.50
2017-08-09T19:42:14.283Z,60.50
2017-08-09T19:44:41.803Z,61.30
2017-08-09T19:47:09.320Z,61.00
2017-08-09T19:49:36.851Z,61.50
2017-08-09T19:52:04.351Z,64.70
2017-08-09T19:54:32.658Z,69.40
2017-08-09T19:57:00.215Z,68.50
2017-08-09T19:59:27.725Z,70.60
2017-08-09T20:01:55.339Z,71.20
2017-08-09T20:04:22.890Z,72.60
2017-08-09T20:06:50.411Z,72.60
2017-08-09T20:09:18.219Z,72.40
2017-08-09T20:11:46.187Z,74.70
2017-08-09T20:14:13.696Z,81.30
2017-08-09T20:16:41.219Z,84.00
2017-08-09T20:19:08.722Z,85.30
2017-08-09T20:21:36.246Z,86.60
2017-08-09T20:24:03.743Z,87.90
2017-08-09T20:26:31.337Z,88.50
2017-08-09T20:29:00.365Z,90.30
2017-08-09T20:31:27.903Z,90.50
2017-08-09T20:33:55.524Z,90.40
2017-08-09T20:36:23.795Z,89.10
2017-08-09T20:38:52.087Z,89.80
2017-08-09T20:41:20.360Z,90.00
2017-08-09T20:43:48.638Z,90.50
2017-08-09T20:46:16.219Z,90.50
2017-08-09T20:48:43.738Z,91.50
2017-08-09T20:51:12.011Z,92.00
2017-08-09T20:53:40.303Z,92.90
2017-08-09T20:56:08.575Z,93.40
2017-08-09T20:58:36.860Z,93.60
2017-08-09T21:01:05.131Z,94.00
2017-08-09T21:03:33.531Z,94.30
2017-08-09T21:06:01.064Z,94.20
2017-08-09T21:08:29.372Z,95.30
2017-08-09T21:10:56.880Z,95.30
2017-08-09T21:13:24.399Z,95.20
2017-08-09T21:15:51.940Z,95.70
2017-08-09T21:18:19.452Z,95.80
2017-08-09T21:20:47.755Z,96.70
2017-08-09T21:23:16.051Z,96.40
2017-08-09T21:25:43.571Z,96.30
2017-08-09T21:28:11.087Z,96.60
2017-08-09T21:30:38.619Z,96.60
2017-08-09T21:33:06.135Z,96.50
2017-08-09T21:35:33.740Z,96.60
2017-08-09T21:38:01.252Z,96.70
2017-08-09T21:40:28.795Z,96.80
2017-08-09T21:42:56.300Z,96.80
2017-08-09T21:45:24.723Z,97.10
2017-08-09T21:47:52.351Z,97.10
2017-08-09T21:50:19.911Z,97.50
2017-08-09T21:52:48.162Z,97.40
2017-08-09T21:55:16.859Z,97.40
2017-08-09T21:57:46.892Z,97.20
2017-08-09T22:00:14.405Z,97.20
2017-08-09T22:02:41.923Z,97.70
2017-08-09T22:05:09.467Z,97.70
2017-08-09T22:07:36.993Z,97.80
2017-08-09T22:10:05.304Z,97.50
2017-08-09T22:12:32.862Z,97.50
2017-08-09T22:15:00.371Z,98.10
2017-08-09T22:17:27.885Z,98.00
2017-08-09T22:19:55.403Z,98.30
2017-08-09T22:22:23.712Z,98.70
2017-08-09T22:24:51.230Z,98.40
2017-08-09T22:27:18.736Z,98.20
2017-08-09T22:29:46.255Z,98.40
2017-08-09T22:32:14.563Z,98.60
2017-08-09T22:34:42.122Z,98.40
2017-08-09T22:37:09.619Z,97.90
2017-08-09T22:39:37.137Z,98.00
2017-08-09T22:42:04.644Z,98.10
2017-08-09T22:44:32.167Z,97.90
2017-08-09T22:46:59.671Z,98.10
2017-08-09T22:49:27.190Z,98.10
2017-08-09T22:51:54.707Z,98.20
2017-08-09T22:54:22.975Z,98.10
2017-08-09T22:56:51.285Z,98.20
2017-08-09T22:59:18.782Z,98.20
2017-08-09T23:01:46.299Z,98.20
2017-08-09T23:04:13.803Z,97.60
2017-08-09T23:06:41.323Z,97.50
2017-08-09T23:09:08.823Z,97.90
2017-08-09T23:11:36.407Z,97.90
2017-08-09T23:14:04.692Z,98.70
2017-08-09T23:16:33.039Z,98.70
2017-08-09T23:19:00.551Z,99.00
2017-08-09T23:21:28.055Z,98.90
2017-08-09T23:23:55.582Z,98.90
2017-08-09T23:26:23.206Z,99.10
2017-08-09T23:28:50.776Z,99.30
2017-08-09T23:31:18.619Z,98.60
2017-08-09T23:33:46.926Z,98.60
2017-08-09T23:36:14.431Z,98.70
2017-08-09T23:38:41.951Z,98.50
2017-08-09T23:41:09.486Z,98.30
2017-08-09T23:43:37.017Z,98.50
2017-08-09T23:46:05.291Z,99.10
2017-08-09T23:48:33.598Z,98.60
2017-08-09T23:51:01.111Z,98.80
2017-08-09T23:53:28.618Z,98.70
2017-08-09T23:55:56.138Z,98.80
2017-08-09T23:58:24.423Z,99.50
